Time;durP1;ratioP1;P1;durP2;ratioP2;P2;SDS_P1;SDS_P2;PMS_P1;PMS_P2;Temp;Humidity;BMP_temperature;BMP_pressure;BME280_temperature;BME280_humidity;BME280_pressure;Samples;Min_cycle;Max_cycle;Signal;HPM_P1;HPM_P2
2022/05/29 00:00:16;;;;;;;4.53;4.00;;;9.50;1.00;;;;;;4968826;28;20185;-54
2022/05/29 00:02:41;;;;;;;4.73;4.17;;;9.50;1.00;;;;;;4973107;28;20992;-55
2022/05/29 00:05:10;;;;;;;5.43;4.17;;;9.40;1.00;;;;;;4969107;28;20429;-54
2022/05/29 00:07:35;;;;;;;4.57;3.60;;;9.30;1.00;;;;;;4969573;28;20193;-53
2022/05/29 00:10:05;;;;;;;4.20;3.77;;;9.30;1.00;;;;;;4968691;28;20439;-53
2022/05/29 00:12:30;;;;;;;4.80;4.30;;;9.20;1.00;;;;;;4970244;28;20208;-50
2022/05/29 00:14:56;;;;;;;4.23;3.80;;;9.20;1.00;;;;;;4973386;28;20494;-56
2022/05/29 00:17:22;;;;;;;4.40;3.90;;;9.20;1.00;;;;;;4963931;28;20557;-53
2022/05/29 00:19:47;;;;;;;4.10;3.70;;;9.10;1.00;;;;;;4971488;28;20196;-53
2022/05/29 00:22:17;;;;;;;10.43;3.77;;;9.20;1.00;;;;;;4972961;28;20320;-54
2022/05/29 00:24:45;;;;;;;7.43;3.80;;;9.10;1.00;;;;;;4972987;28;20483;-56
2022/05/29 00:27:11;;;;;;;4.73;3.80;;;9.10;1.00;;;;;;4969854;28;21333;-54
2022/05/29 00:29:37;;;;;;;6.60;4.00;;;9.00;1.00;;;;;;4972782;28;20416;-54
2022/05/29 00:32:05;;;;;;;6.07;3.90;;;9.00;1.00;;;;;;4964889;28;20563;-55
2022/05/29 00:34:31;;;;;;;4.37;3.97;;;8.90;1.00;;;;;;4972730;28;20931;-53
2022/05/29 00:36:58;;;;;;;4.57;4.07;;;8.90;1.00;;;;;;4965477;28;20428;-53
2022/05/29 00:39:25;;;;;;;5.30;4.07;;;8.80;1.00;;;;;;4972946;28;20408;-51
2022/05/29 00:41:51;;;;;;;6.17;4.13;;;8.80;1.00;;;;;;4972581;28;20976;-51
2022/05/29 00:44:23;;;;;;;5.20;4.40;;;8.80;1.00;;;;;;4959786;28;20449;-55
2022/05/29 00:47:09;;;;;;;6.23;4.17;;;8.70;1.00;;;;;;4966700;28;20528;-57
2022/05/29 00:49:37;;;;;;;4.90;3.50;;;8.70;4.80;;;;;;4983148;28;20499;-55
2022/05/29 00:52:19;;;;;;;6.10;3.80;;;8.70;4.70;;;;;;4952947;28;21467;-54
2022/05/29 00:55:01;;;;;;;4.63;4.23;;;8.60;3.50;;;;;;4962013;28;20502;-50
2022/05/29 00:57:33;;;;;;;7.40;4.23;;;8.50;5.20;;;;;;4962452;28;20483;-56
2022/05/29 01:00:03;;;;;;;5.23;4.10;;;8.40;7.60;;;;;;4971179;28;20452;-53
2022/05/29 01:02:28;;;;;;;5.70;3.43;;;8.40;10.30;;;;;;4961344;28;20508;-55
2022/05/29 01:04:56;;;;;;;7.83;4.20;;;8.40;12.30;;;;;;4970854;28;20432;-54
2022/05/29 01:07:23;;;;;;;6.67;3.97;;;8.30;17.00;;;;;;4965105;28;20197;-51
2022/05/29 01:09:50;;;;;;;7.13;4.00;;;8.20;19.20;;;;;;4968613;28;20442;-49
2022/05/29 01:12:24;;;;;;;6.00;4.63;;;8.20;22.20;;;;;;4962703;28;20477;-56
2022/05/29 01:15:06;;;;;;;7.53;4.10;;;8.20;24.40;;;;;;4964505;28;20510;-51
2022/05/29 01:18:05;;;;;;;6.70;4.27;;;8.20;23.80;;;;;;4963890;28;20487;-50
2022/05/29 01:20:38;;;;;;;6.27;3.50;;;8.10;27.90;;;;;;4991874;28;21033;-51
2022/05/29 01:23:29;;;;;;;5.77;3.87;;;8.00;29.60;;;;;;4965160;28;20473;-51
2022/05/29 01:26:32;;;;;;;4.90;3.70;;;8.00;30.40;;;;;;4969492;28;20555;-52
2022/05/29 01:29:07;;;;;;;4.60;3.80;;;8.00;33.10;;;;;;4963837;28;20961;-52
2022/05/29 01:31:42;;;;;;;4.83;3.70;;;7.90;41.50;;;;;;4971512;28;20460;-55
2022/05/29 01:34:28;;;;;;;4.60;3.93;;;7.80;43.20;;;;;;4953501;28;20417;-55
2022/05/29 01:36:57;;;;;;;5.33;3.97;;;7.80;45.90;;;;;;4959360;28;20424;-52
2022/05/29 01:39:52;;;;;;;5.00;3.80;;;7.80;51.10;;;;;;4967270;28;20979;-54
2022/05/29 01:42:26;;;;;;;5.43;4.40;;;7.70;56.80;;;;;;4983497;28;20448;-53
2022/05/29 01:45:01;;;;;;;4.70;3.72;;;7.70;70.00;;;;;;4960146;28;20538;-55
2022/05/29 01:48:10;;;;;;;6.57;4.07;;;7.70;68.70;;;;;;4970158;28;20659;-51
2022/05/29 01:50:50;;;;;;;9.30;4.40;;;7.60;68.10;;;;;;4960735;28;20945;-53
2022/05/29 01:53:23;;;;;;;4.37;3.80;;;7.50;70.90;;;;;;4962909;28;20546;-54
2022/05/29 01:55:53;;;;;;;5.13;3.90;;;7.50;73.20;;;;;;4966832;28;20436;-53
2022/05/29 01:58:25;;;;;;;5.87;4.00;;;7.40;80.80;;;;;;4964870;28;20510;-55
2022/05/29 02:00:55;;;;;;;5.82;4.20;;;7.40;86.50;;;;;;4970982;28;20431;-54
2022/05/29 02:03:27;;;;;;;5.93;4.70;;;7.30;89.40;;;;;;4967335;28;20189;-55
2022/05/29 02:05:57;;;;;;;7.20;4.23;;;7.30;91.40;;;;;;4972047;28;20508;-51
2022/05/29 02:08:36;;;;;;;4.80;4.33;;;7.30;92.60;;;;;;4971418;28;20439;-51
2022/05/29 02:11:10;;;;;;;5.28;3.92;;;7.30;95.20;;;;;;4966001;28;20436;-53
2022/05/29 02:13:56;;;;;;;7.35;4.10;;;7.30;96.00;;;;;;4970831;28;20199;-54
2022/05/29 02:16:36;;;;;;;7.05;5.30;;;7.20;96.10;;;;;;4970250;28;20233;-55
2022/05/29 02:19:33;;;;;;;5.20;3.78;;;7.30;96.30;;;;;;4970562;28;20647;-55
2022/05/29 02:22:10;;;;;;;5.20;4.20;;;7.30;94.40;;;;;;4952841;28;20221;-52
2022/05/29 02:24:43;;;;;;;6.30;4.45;;;7.20;93.70;;;;;;4964977;28;20535;-56
2022/05/29 02:27:34;;;;;;;5.00;4.10;;;7.20;93.70;;;;;;4965735;28;20181;-55
2022/05/29 02:30:02;;;;;;;8.65;3.75;;;7.10;94.70;;;;;;4958946;28;20473;-53
2022/05/29 02:32:34;;;;;;;7.50;4.20;;;7.20;94.50;;;;;;4969166;28;20291;-56
2022/05/29 02:35:26;;;;;;;6.95;4.32;;;7.10;95.40;;;;;;4970950;28;20881;-53
2022/05/29 02:38:14;;;;;;;5.57;4.70;;;7.00;96.30;;;;;;4965068;28;20201;-51
2022/05/29 02:40:42;;;;;;;4.50;3.72;;;7.00;99.80;;;;;;4969122;28;20687;-51
2022/05/29 02:43:18;;;;;;;4.65;4.18;;;6.90;99.90;;;;;;4951350;29;20742;-52
2022/05/29 02:46:21;;;;;;;5.53;4.35;;;6.90;99.90;;;;;;4973925;28;20192;-53
2022/05/29 02:49:04;;;;;;;5.53;4.10;;;6.90;99.90;;;;;;4970177;28;20191;-55
2022/05/29 02:51:41;;;;;;;8.07;4.45;;;6.90;99.90;;;;;;4972389;28;20714;-52
2022/05/29 02:54:11;;;;;;;6.25;4.43;;;6.80;99.90;;;;;;4969325;28;20200;-53
2022/05/29 02:56:37;;;;;;;5.80;3.58;;;6.80;99.90;;;;;;4974530;28;20232;-52
2022/05/29 02:59:03;;;;;;;5.80;3.93;;;6.80;99.90;;;;;;4975672;28;20284;-54
2022/05/29 03:01:47;;;;;;;7.33;4.57;;;6.70;99.90;;;;;;4964384;28;20193;-52
2022/05/29 03:04:44;;;;;;;5.63;4.80;;;6.70;99.90;;;;;;4969776;28;20798;-52
2022/05/29 03:07:48;;;;;;;6.13;4.68;;;6.70;99.90;;;;;;4974502;28;20197;-52
2022/05/29 03:10:37;;;;;;;6.93;3.90;;;6.70;99.90;;;;;;4958896;28;20194;-55
2022/05/29 03:13:18;;;;;;;5.13;4.13;;;6.80;99.90;;;;;;4971124;28;20225;-52
2022/05/29 03:16:07;;;;;;;8.95;5.07;;;6.70;99.90;;;;;;4959340;28;20186;-55
2022/05/29 03:18:54;;;;;;;7.30;4.40;;;6.70;99.90;;;;;;4969822;28;20181;-53
2022/05/29 03:21:30;;;;;;;7.93;4.60;;;6.70;99.90;;;;;;4966306;28;20694;-51
2022/05/29 03:24:25;;;;;;;6.63;4.43;;;6.70;99.90;;;;;;4958249;28;20541;-53
2022/05/29 03:27:29;;;;;;;4.90;4.20;;;6.80;99.90;;;;;;4970034;28;20244;-56
2022/05/29 03:30:12;;;;;;;5.40;4.40;;;6.70;99.90;;;;;;5012943;28;20278;-58
2022/05/29 03:32:38;;;;;;;6.88;4.28;;;6.80;99.90;;;;;;5020785;28;20220;-57
2022/05/29 03:35:26;;;;;;;5.22;4.25;;;6.70;99.90;;;;;;5012061;28;20203;-55
2022/05/29 03:37:53;;;;;;;5.80;4.63;;;6.70;99.90;;;;;;5021572;28;20214;-55
2022/05/29 03:40:20;;;;;;;7.63;4.70;;;6.80;99.90;;;;;;5015935;28;20640;-54
2022/05/29 03:42:46;;;;;;;6.70;4.35;;;6.80;99.90;;;;;;5022904;28;20195;-58
2022/05/29 03:45:12;;;;;;;6.23;4.37;;;6.80;99.90;;;;;;5023917;28;20195;-56
2022/05/29 03:47:38;;;;;;;5.40;4.03;;;6.80;99.90;;;;;;5019581;28;20195;-55
2022/05/29 03:50:06;;;;;;;5.38;4.30;;;6.80;99.90;;;;;;5028197;28;20257;-57
2022/05/29 03:52:34;;;;;;;9.77;4.60;;;6.80;99.90;;;;;;5011628;28;20226;-55
2022/05/29 03:55:00;;;;;;;4.78;4.10;;;6.80;99.90;;;;;;5020533;28;20191;-60
2022/05/29 03:57:26;;;;;;;7.28;4.60;;;6.80;99.90;;;;;;5019172;28;20286;-58
2022/05/29 03:59:52;;;;;;;5.90;4.50;;;6.90;99.90;;;;;;5013657;28;20235;-57
2022/05/29 04:02:18;;;;;;;7.30;5.00;;;6.90;99.90;;;;;;4968764;28;20812;-56
2022/05/29 04:04:43;;;;;;;7.07;4.60;;;6.90;99.90;;;;;;4968939;28;20200;-57
2022/05/29 04:07:09;;;;;;;6.97;4.67;;;6.90;99.90;;;;;;4967401;28;21217;-58
2022/05/29 04:12:19;;;;;;;5.85;4.80;;;7.00;99.90;;;;;;4966069;28;20217;-56
2022/05/29 04:14:44;;;;;;;5.10;4.60;;;7.00;99.90;;;;;;4969970;28;20177;-56
2022/05/29 04:17:12;;;;;;;5.30;4.80;;;7.10;99.90;;;;;;4970714;28;20182;-58
2022/05/29 04:19:39;;;;;;;6.07;5.25;;;7.10;99.90;;;;;;4965686;28;20192;-55
2022/05/29 04:22:15;;;;;;;7.10;4.75;;;7.10;99.90;;;;;;4966850;28;20229;-57
2022/05/29 04:24:40;;;;;;;7.65;5.00;;;7.10;99.90;;;;;;4956262;28;20192;-58
2022/05/29 04:27:11;;;;;;;7.20;5.00;;;7.20;99.90;;;;;;4960271;28;20193;-57
2022/05/29 04:29:37;;;;;;;5.00;4.50;;;7.30;99.90;;;;;;4962881;28;20209;-55
2022/05/29 04:34:47;;;;;;;6.30;4.70;;;7.40;99.90;;;;;;4999687;28;20462;-54
2022/05/29 04:37:13;;;;;;;7.43;4.37;;;7.50;99.90;;;;;;4969550;28;21110;-55
2022/05/29 04:39:38;;;;;;;6.73;4.77;;;7.50;99.90;;;;;;4963766;28;20215;-58
2022/05/29 04:42:04;;;;;;;7.97;4.00;;;7.60;99.90;;;;;;4965791;28;20661;-58
2022/05/29 04:44:31;;;;;;;7.50;3.97;;;7.60;99.90;;;;;;4966669;28;20188;-53
2022/05/29 04:47:00;;;;;;;5.17;4.47;;;7.70;99.90;;;;;;4960598;28;20445;-55
2022/05/29 04:49:27;;;;;;;4.97;4.20;;;7.80;99.90;;;;;;4959583;28;20970;-57
2022/05/29 04:51:52;;;;;;;6.27;3.93;;;7.80;99.90;;;;;;4971076;28;20780;-56
2022/05/29 04:54:18;;;;;;;5.43;4.23;;;7.90;99.90;;;;;;4964953;28;20442;-57
2022/05/29 04:56:46;;;;;;;4.67;3.87;;;7.90;98.90;;;;;;4971941;28;20229;-57
2022/05/29 04:59:12;;;;;;;5.30;3.87;;;8.00;95.30;;;;;;4963694;28;21033;-56
2022/05/29 05:01:38;;;;;;;7.00;3.50;;;8.00;91.80;;;;;;4964469;28;20536;-51
2022/05/29 05:04:04;;;;;;;5.97;3.83;;;8.10;90.00;;;;;;4963638;28;20613;-57
2022/05/29 05:06:30;;;;;;;6.60;3.97;;;8.20;70.00;;;;;;4972184;28;20500;-54
2022/05/29 05:08:56;;;;;;;5.60;3.63;;;8.20;56.70;;;;;;4963373;28;20445;-56
2022/05/29 05:11:21;;;;;;;6.07;3.90;;;8.30;48.80;;;;;;4971179;28;20212;-54
2022/05/29 05:13:47;;;;;;;4.30;3.80;;;8.30;28.00;;;;;;4971723;28;20714;-57
2022/05/29 05:16:12;;;;;;;7.23;3.80;;;8.40;18.20;;;;;;4968257;28;20189;-56
2022/05/29 05:18:38;;;;;;;3.70;3.33;;;8.50;12.20;;;;;;4970513;28;20647;-57
2022/05/29 05:21:05;;;;;;;6.13;3.70;;;8.60;6.00;;;;;;4970103;28;20193;-56
2022/05/29 05:23:31;;;;;;;3.50;3.07;;;8.70;1.00;;;;;;4966157;28;20181;-56
2022/05/29 05:25:57;;;;;;;5.70;3.30;;;8.80;1.00;;;;;;4971416;28;20424;-58
2022/05/29 05:28:23;;;;;;;4.90;3.77;;;8.80;1.00;;;;;;4970681;28;20429;-56
2022/05/29 05:30:48;;;;;;;6.57;3.50;;;8.90;1.00;;;;;;4963017;28;20977;-57
2022/05/29 05:33:15;;;;;;;10.27;3.80;;;9.00;1.00;;;;;;4972052;28;20550;-59
2022/05/29 05:35:40;;;;;;;5.30;3.63;;;9.10;1.00;;;;;;4969905;28;20186;-57
2022/05/29 05:38:07;;;;;;;5.40;3.90;;;9.20;1.00;;;;;;4965497;28;20790;-54
2022/05/29 05:40:33;;;;;;;4.83;3.73;;;9.30;1.00;;;;;;4970956;28;20181;-54
2022/05/29 05:42:58;;;;;;;4.20;3.70;;;9.50;1.00;;;;;;4968000;28;20515;-57
2022/05/29 05:45:24;;;;;;;6.03;3.73;;;9.60;1.00;;;;;;4968259;28;20515;-57
2022/05/29 05:47:50;;;;;;;6.50;3.40;;;9.60;1.00;;;;;;4971060;28;20190;-55
2022/05/29 05:50:15;;;;;;;5.47;3.40;;;9.60;1.00;;;;;;4965848;28;20201;-56
2022/05/29 05:52:42;;;;;;;4.23;3.40;;;9.70;1.00;;;;;;4964986;28;20667;-54
2022/05/29 05:55:10;;;;;;;5.70;3.57;;;9.70;1.00;;;;;;4971360;28;20284;-57
2022/05/29 05:57:36;;;;;;;5.47;3.40;;;9.90;1.00;;;;;;4966574;28;21411;-58
2022/05/29 06:00:04;;;;;;;3.93;3.47;;;9.90;1.00;;;;;;4968962;28;20428;-58
2022/05/29 06:02:30;;;;;;;5.30;3.40;;;10.00;1.00;;;;;;4959024;28;20996;-57
2022/05/29 06:04:55;;;;;;;3.90;2.83;;;10.30;1.00;;;;;;4970940;28;20437;-57
2022/05/29 06:07:21;;;;;;;7.03;3.10;;;10.40;1.00;;;;;;4958350;28;20645;-55
2022/05/29 06:09:47;;;;;;;7.73;3.50;;;10.60;1.00;;;;;;4970545;28;20254;-58
2022/05/29 06:12:12;;;;;;;6.17;3.93;;;10.60;1.00;;;;;;4962348;28;20577;-58
2022/05/29 06:14:38;;;;;;;4.33;3.93;;;10.70;1.00;;;;;;4970847;28;20216;-52
2022/05/29 06:17:04;;;;;;;3.20;2.90;;;10.80;1.00;;;;;;4961847;28;20562;-58
2022/05/29 06:19:30;;;;;;;4.33;3.30;;;10.80;1.00;;;;;;4971210;28;20237;-58
2022/05/29 06:21:56;;;;;;;7.60;3.80;;;10.90;1.00;;;;;;4962730;28;20491;-58
2022/05/29 06:24:21;;;;;;;7.90;4.07;;;11.10;99.90;;;;;;4969174;28;20189;-59
2022/05/29 06:26:47;;;;;;;4.70;3.33;;;11.20;99.90;;;;;;4966662;28;20192;-56
2022/05/29 06:29:13;;;;;;;3.63;3.33;;;11.30;81.20;;;;;;4967883;28;20538;-57
2022/05/29 06:31:39;;;;;;;5.20;3.47;;;11.40;1.00;;;;;;4967095;28;20268;-56
2022/05/29 06:34:04;;;;;;;4.27;3.87;;;11.60;99.90;;;;;;4987449;28;20445;-57
2022/05/29 06:36:30;;;;;;;5.43;3.70;;;11.60;99.90;;;;;;4970611;28;20380;-53
2022/05/29 06:38:58;;;;;;;5.37;4.13;;;11.70;1.00;;;;;;4958886;28;20195;-59
2022/05/29 06:41:25;;;;;;;4.43;3.87;;;11.80;53.70;;;;;;4970312;28;20196;-56
2022/05/29 06:43:52;;;;;;;4.40;3.50;;;11.90;99.90;;;;;;4970199;28;20832;-59
2022/05/29 06:46:19;;;;;;;6.10;3.80;;;12.00;1.00;;;;;;4960545;28;20958;-57
2022/05/29 06:48:44;;;;;;;5.17;3.47;;;12.10;99.90;;;;;;4964246;28;20448;-58
2022/05/29 06:51:13;;;;;;;4.40;4.00;;;12.10;1.00;;;;;;4969310;28;20432;-57
2022/05/29 06:53:39;;;;;;;4.13;3.70;;;12.20;1.00;;;;;;5000074;28;20193;-59
2022/05/29 06:56:05;;;;;;;4.50;4.10;;;12.30;99.90;;;;;;4965364;28;20472;-59
2022/05/29 06:58:31;;;;;;;5.10;4.17;;;12.40;99.90;;;;;;4970250;28;21016;-57
2022/05/29 07:09:17;;;;;;;4.83;3.67;;;12.80;1.00;;;;;;4972020;28;20796;-57
2022/05/29 07:11:46;;;;;;;5.77;3.90;;;12.90;1.00;;;;;;4973991;28;20504;-59
2022/05/29 07:14:12;;;;;;;6.20;4.07;;;12.90;1.00;;;;;;4966457;28;20440;-57
2022/05/29 07:16:38;;;;;;;5.40;3.80;;;13.00;99.90;;;;;;4965206;28;20448;-58
2022/05/29 07:19:04;;;;;;;4.23;3.53;;;13.10;99.90;;;;;;4971479;28;20197;-57
2022/05/29 07:21:33;;;;;;;6.17;4.00;;;13.10;99.90;;;;;;4974060;28;20436;-57
2022/05/29 07:23:59;;;;;;;4.60;3.83;;;13.10;99.90;;;;;;4970953;28;20452;-54
2022/05/29 07:26:25;;;;;;;4.80;3.47;;;13.30;1.00;;;;;;4973947;28;20436;-57
2022/05/29 07:28:51;;;;;;;6.90;4.30;;;13.40;1.00;;;;;;4959558;28;20444;-55
2022/05/29 07:31:17;;;;;;;4.90;4.30;;;13.40;1.00;;;;;;4967737;28;21184;-57
2022/05/29 07:33:42;;;;;;;4.87;4.10;;;13.50;1.00;;;;;;4962573;28;20432;-56
2022/05/29 07:36:10;;;;;;;3.83;3.53;;;13.60;1.00;;;;;;4965409;28;20268;-56
2022/05/29 07:38:35;;;;;;;3.90;3.60;;;13.80;1.00;;;;;;4961258;28;20771;-54
2022/05/29 07:41:01;;;;;;;4.27;3.87;;;13.90;1.00;;;;;;4968176;28;20515;-58
2022/05/29 07:43:27;;;;;;;4.60;3.33;;;14.00;1.00;;;;;;4963240;28;20521;-58
2022/05/29 07:45:56;;;;;;;4.03;3.73;;;14.10;1.00;;;;;;4967146;28;20891;-59
2022/05/29 07:48:26;;;;;;;4.00;3.60;;;14.20;1.00;;;;;;4970965;28;20193;-57
2022/05/29 07:50:52;;;;;;;4.87;4.03;;;14.30;1.00;;;;;;4971093;28;20918;-59
2022/05/29 07:53:18;;;;;;;3.90;3.60;;;14.60;1.00;;;;;;4968487;28;20501;-59
2022/05/29 07:55:54;;;;;;;5.00;3.80;;;14.80;1.00;;;;;;4992963;28;20443;-59
2022/05/29 07:58:21;;;;;;;3.80;3.50;;;15.10;1.00;;;;;;4972665;28;21005;-54
2022/05/29 08:00:47;;;;;;;4.07;3.70;;;15.50;1.00;;;;;;4971607;28;20440;-59
2022/05/29 08:03:12;;;;;;;5.50;4.50;;;15.70;99.90;;;;;;4958256;28;20191;-57
2022/05/29 08:05:38;;;;;;;5.53;3.83;;;16.00;99.90;;;;;;4959510;28;20194;-59
2022/05/29 08:08:08;;;;;;;4.63;3.83;;;16.00;99.90;;;;;;4960051;28;20187;-57
2022/05/29 08:10:35;;;;;;;5.43;3.77;;;16.00;99.90;;;;;;4970728;28;20432;-55
2022/05/29 08:13:01;;;;;;;4.93;4.07;;;15.90;99.90;;;;;;4973601;28;20475;-54
2022/05/29 08:15:30;;;;;;;5.13;4.03;;;16.00;99.90;;;;;;4960727;28;20438;-65
2022/05/29 08:17:56;;;;;;;4.00;3.70;;;16.10;99.90;;;;;;4969885;28;20194;-59
2022/05/29 08:23:35;;;;;;;5.00;4.50;;;16.30;99.90;;;;;;4992834;28;20991;-57
2022/05/29 08:31:29;;;;;;;4.63;4.23;;;16.20;99.90;;;;;;4965939;28;20473;-59
2022/05/29 08:33:54;;;;;;;3.87;3.67;;;16.10;99.90;;;;;;4969579;28;20441;-61
2022/05/29 08:36:24;;;;;;;5.97;4.43;;;15.80;99.90;;;;;;4963070;28;20186;-60
2022/05/29 08:38:52;;;;;;;4.50;4.20;;;15.40;99.90;;;;;;4966328;28;20183;-59
2022/05/29 08:41:33;;;;;;;4.53;4.23;;;15.30;99.90;;;;;;4980064;28;20879;-59
2022/05/29 08:44:04;;;;;;;5.73;4.60;;;15.00;99.90;;;;;;4972719;28;20467;-59
2022/05/29 08:46:38;;;;;;;5.40;4.00;;;14.90;99.90;;;;;;4960431;28;20429;-56
2022/05/29 08:49:04;;;;;;;4.57;4.27;;;14.70;99.90;;;;;;4957899;28;20412;-56
2022/05/29 08:52:07;;;;;;;5.10;4.63;;;14.70;99.90;;;;;;4966674;28;20497;-59
2022/05/29 08:54:41;;;;;;;4.87;4.47;;;14.90;99.90;;;;;;4963298;28;20431;-58
2022/05/29 08:57:30;;;;;;;6.10;4.33;;;15.10;99.90;;;;;;4956539;28;20519;-58
2022/05/29 09:00:03;;;;;;;4.40;4.00;;;15.10;99.90;;;;;;4962451;28;20436;-58
2022/05/29 09:02:35;;;;;;;4.63;4.30;;;15.50;99.90;;;;;;4968702;28;21188;-60
2022/05/29 09:05:13;;;;;;;5.53;4.60;;;15.80;99.90;;;;;;4962115;28;20535;-59
2022/05/29 09:07:41;;;;;;;4.97;4.67;;;16.30;99.90;;;;;;4965014;28;20813;-58
2022/05/29 09:10:40;;;;;;;6.07;4.50;;;16.60;99.90;;;;;;4973563;28;20450;-58
2022/05/29 09:13:15;;;;;;;4.40;4.10;;;16.30;99.90;;;;;;4968262;28;20473;-57
2022/05/29 09:15:46;;;;;;;5.50;5.00;;;16.00;99.90;;;;;;4967642;28;21542;-59
2022/05/29 09:18:18;;;;;;;4.37;4.07;;;16.20;99.90;;;;;;4961889;28;20531;-58
2022/05/29 09:20:54;;;;;;;4.50;4.20;;;16.50;99.90;;;;;;4957971;28;20454;-59
2022/05/29 09:23:28;;;;;;;4.60;4.20;;;16.80;99.90;;;;;;4960888;28;20596;-60
2022/05/29 09:25:55;;;;;;;4.87;4.50;;;17.40;99.90;;;;;;4955356;28;20434;-57
2022/05/29 09:28:33;;;;;;;4.80;4.50;;;17.80;99.90;;;;;;4970891;28;20822;-59
2022/05/29 09:31:08;;;;;;;4.93;4.53;;;18.80;99.90;;;;;;4954217;28;20489;-59
2022/05/29 09:33:36;;;;;;;4.37;4.07;;;19.10;99.90;;;;;;4956412;28;20467;-60
2022/05/29 09:36:28;;;;;;;4.30;3.90;;;19.40;99.90;;;;;;4956799;28;21285;-60
2022/05/29 09:39:03;;;;;;;4.40;4.10;;;20.20;99.90;;;;;;4954361;28;20811;-61
2022/05/29 09:41:34;;;;;;;4.70;4.30;;;20.60;99.90;;;;;;4961697;28;20433;-61
2022/05/29 09:44:09;;;;;;;4.63;4.23;;;21.00;99.90;;;;;;4962308;28;21113;-59
2022/05/29 09:46:40;;;;;;;4.00;3.80;;;21.60;99.90;;;;;;4966857;28;20434;-58
2022/05/29 09:52:14;;;;;;;4.00;3.60;;;21.20;99.90;;;;;;4965523;28;20479;-59
2022/05/29 09:54:50;;;;;;;4.10;3.90;;;21.30;99.90;;;;;;4961128;28;20452;-59
2022/05/29 09:57:28;;;;;;;4.50;4.20;;;21.00;99.90;;;;;;4963584;28;20466;-58
2022/05/29 10:00:05;;;;;;;3.60;3.40;;;21.10;99.90;;;;;;4965350;28;20557;-60
2022/05/29 10:02:38;;;;;;;3.83;3.63;;;22.00;99.90;;;;;;4967853;28;20551;-57
2022/05/29 10:05:07;;;;;;;4.27;4.03;;;23.10;99.90;;;;;;4970538;28;20441;-51
2022/05/29 10:07:37;;;;;;;4.90;4.50;;;23.80;99.90;;;;;;4966522;28;20435;-53
2022/05/29 10:10:11;;;;;;;3.83;3.47;;;23.60;99.90;;;;;;4966456;28;20440;-53
2022/05/29 10:12:48;;;;;;;4.10;3.90;;;23.60;99.90;;;;;;4969568;28;20804;-52
2022/05/29 10:15:34;;;;;;;3.80;3.60;;;23.10;99.90;;;;;;4971749;28;20423;-55
2022/05/29 10:18:12;;;;;;;4.40;4.00;;;22.90;99.90;;;;;;4968942;28;21111;-56
2022/05/29 10:20:43;;;;;;;4.70;4.37;;;23.20;99.90;;;;;;4967817;28;20411;-53
2022/05/29 10:23:12;;;;;;;4.57;4.37;;;22.90;99.90;;;;;;4968377;28;20432;-56
2022/05/29 10:25:42;;;;;;;4.97;4.37;;;21.80;99.90;;;;;;4968888;28;20431;-56
2022/05/29 10:28:15;;;;;;;4.43;4.13;;;22.00;99.90;;;;;;4968954;28;20437;-58
2022/05/29 10:30:50;;;;;;;4.00;3.80;;;22.40;99.90;;;;;;4967761;28;20934;-54
2022/05/29 10:33:22;;;;;;;4.17;3.80;;;23.50;99.90;;;;;;4966156;28;20476;-52
2022/05/29 10:35:49;;;;;;;4.10;3.70;;;23.80;99.90;;;;;;4964859;28;20506;-54
2022/05/29 10:38:18;;;;;;;3.80;3.60;;;24.30;99.90;;;;;;4961162;28;20437;-56
2022/05/29 10:40:44;;;;;;;3.87;3.43;;;24.90;99.90;;;;;;4964573;28;20535;-55
2022/05/29 10:43:10;;;;;;;4.07;3.73;;;25.70;99.90;;;;;;4970618;28;20453;-56
2022/05/29 10:45:47;;;;;;;4.20;3.83;;;26.20;99.90;;;;;;4962097;28;21054;-52
2022/05/29 10:48:50;;;;;;;3.97;3.40;;;25.60;99.90;;;;;;4961283;28;20184;-54
2022/05/29 10:51:41;;;;;;;3.73;3.53;;;25.50;99.90;;;;;;4969431;28;20425;-54
2022/05/29 10:54:24;;;;;;;3.93;3.73;;;24.40;99.90;;;;;;4967910;28;20895;-55
2022/05/29 10:57:22;;;;;;;4.03;3.73;;;23.70;99.90;;;;;;4962540;28;20566;-57
2022/05/29 11:00:01;;;;;;;4.40;4.10;;;23.60;99.90;;;;;;4964387;28;20918;-54
2022/05/29 11:05:41;;;;;;;4.90;4.43;;;21.00;99.90;;;;;;4969771;28;20435;-55
2022/05/29 11:08:13;;;;;;;4.30;4.10;;;20.10;99.90;;;;;;4968020;28;20470;-55
2022/05/29 11:11:17;;;;;;;4.10;3.67;;;19.70;99.90;;;;;;4960339;28;20441;-54
2022/05/29 11:13:58;;;;;;;4.90;4.60;;;19.50;99.90;;;;;;4964050;28;20475;-57
2022/05/29 11:16:36;;;;;;;4.47;4.03;;;19.90;99.90;;;;;;4969802;28;20775;-55
2022/05/29 11:19:11;;;;;;;4.30;4.10;;;20.10;99.90;;;;;;4969440;28;20415;-54
2022/05/29 11:21:54;;;;;;;3.73;3.53;;;21.00;99.90;;;;;;4969789;28;20414;-55
2022/05/29 11:24:41;;;;;;;4.20;3.80;;;22.00;99.90;;;;;;4969619;28;20445;-54
2022/05/29 11:27:28;;;;;;;4.87;4.57;;;21.50;99.90;;;;;;4970630;28;20436;-54
2022/05/29 11:30:04;;;;;;;4.00;3.80;;;20.90;99.90;;;;;;4969759;28;20421;-52
2022/05/29 11:32:48;;;;;;;4.30;4.00;;;21.70;99.90;;;;;;4967559;28;21045;-56
2022/05/29 11:35:16;;;;;;;4.70;4.40;;;22.30;99.90;;;;;;4973478;28;20526;-54
2022/05/29 11:38:06;;;;;;;4.80;4.40;;;22.80;99.90;;;;;;4968530;28;20448;-54
2022/05/29 11:40:39;;;;;;;4.20;4.00;;;23.70;99.90;;;;;;4955459;28;21364;-55
2022/05/29 11:43:34;;;;;;;4.23;3.93;;;22.90;99.90;;;;;;4961161;28;20514;-54
2022/05/29 11:52:04;;;;;;;4.40;4.10;;;23.80;99.90;;;;;;4967650;28;20579;-53
2022/05/29 11:54:39;;;;;;;3.93;3.73;;;24.10;99.90;;;;;;4968490;28;20433;-53
2022/05/29 11:57:12;;;;;;;4.70;4.40;;;24.70;99.90;;;;;;4968917;28;20967;-54
2022/05/29 11:59:44;;;;;;;3.90;3.70;;;25.60;99.90;;;;;;4963544;28;20444;-56
2022/05/29 12:02:25;;;;;;;3.70;3.50;;;25.90;99.90;;;;;;4984190;28;20478;-56
2022/05/29 12:05:20;;;;;;;3.97;3.77;;;26.80;99.90;;;;;;4968602;28;20503;-56
2022/05/29 12:07:56;;;;;;;3.80;3.60;;;27.20;99.90;;;;;;4964523;28;20928;-57
2022/05/29 12:10:24;;;;;;;3.70;3.50;;;27.60;99.90;;;;;;4972137;28;20448;-54
2022/05/29 12:13:01;;;;;;;4.40;4.00;;;27.60;99.90;;;;;;4968402;28;20974;-52
2022/05/29 12:15:30;;;;;;;3.83;3.63;;;27.60;99.90;;;;;;4970850;28;20459;-55
2022/05/29 12:18:00;;;;;;;4.20;4.00;;;27.40;99.90;;;;;;4969514;28;20492;-52
2022/05/29 12:20:34;;;;;;;3.87;3.63;;;26.60;99.90;;;;;;4967064;28;20436;-56
2022/05/29 12:23:07;;;;;;;3.43;3.23;;;26.30;99.90;;;;;;4966698;28;20566;-54
2022/05/29 12:25:45;;;;;;;4.40;4.10;;;26.80;99.90;;;;;;4971629;28;20428;-53
2022/05/29 12:28:16;;;;;;;3.70;3.50;;;26.30;99.90;;;;;;4970897;28;20439;-52
2022/05/29 12:30:47;;;;;;;3.90;3.63;;;25.90;99.90;;;;;;4971338;28;20903;-55
2022/05/29 12:33:18;;;;;;;4.17;3.97;;;25.20;99.90;;;;;;4971520;28;20476;-55
2022/05/29 12:36:08;;;;;;;3.97;3.77;;;24.70;99.90;;;;;;4961766;28;20954;-56
2022/05/29 12:38:57;;;;;;;4.00;3.70;;;24.30;99.90;;;;;;4968752;28;20857;-53
2022/05/29 12:41:45;;;;;;;3.80;3.50;;;23.80;99.90;;;;;;4968247;28;20437;-53
2022/05/29 12:44:31;;;;;;;4.10;3.80;;;23.30;99.90;;;;;;4966186;28;20428;-55
2022/05/29 12:47:30;;;;;;;4.07;3.80;;;23.00;99.90;;;;;;4972023;28;20531;-55
2022/05/29 12:50:47;;;;;;;4.37;4.13;;;22.70;99.90;;;;;;4960011;28;20444;-52
2022/05/29 12:53:29;;;;;;;3.57;3.43;;;22.60;99.90;;;;;;4978778;28;20541;-52
2022/05/29 12:56:10;;;;;;;4.37;4.00;;;22.30;99.90;;;;;;4967648;28;20485;-56
2022/05/29 12:58:51;;;;;;;4.20;4.00;;;21.80;99.90;;;;;;4968591;28;20908;-54
2022/05/29 13:01:38;;;;;;;4.20;4.00;;;21.70;99.90;;;;;;4967210;28;20435;-55
2022/05/29 13:04:37;;;;;;;4.33;4.03;;;21.20;99.90;;;;;;4960412;28;20442;-55
2022/05/29 13:07:19;;;;;;;4.30;4.07;;;20.80;99.90;;;;;;4968005;28;20448;-55
2022/05/29 13:09:59;;;;;;;4.07;3.77;;;20.90;99.90;;;;;;4962642;28;20498;-51
2022/05/29 13:12:29;;;;;;;4.50;4.20;;;21.00;99.90;;;;;;4999601;28;20537;-56
2022/05/29 13:14:59;;;;;;;4.80;4.50;;;21.10;99.90;;;;;;4963798;28;20628;-54
2022/05/29 13:17:28;;;;;;;5.10;4.60;;;21.20;99.90;;;;;;4969468;28;20496;-54
2022/05/29 13:19:56;;;;;;;4.43;4.10;;;21.30;99.90;;;;;;4970129;28;20434;-54
2022/05/29 13:22:41;;;;;;;3.90;3.70;;;21.30;99.90;;;;;;4969628;28;20448;-57
2022/05/29 13:25:07;;;;;;;4.60;4.30;;;21.50;99.90;;;;;;4970071;28;20446;-52
2022/05/29 13:27:33;;;;;;;4.67;4.27;;;22.00;99.90;;;;;;4962238;28;20436;-53
2022/05/29 13:30:01;;;;;;;4.07;3.77;;;22.40;99.90;;;;;;4970192;28;20425;-54
2022/05/29 13:32:29;;;;;;;4.37;4.03;;;22.90;99.90;;;;;;4964991;28;20452;-57
2022/05/29 13:35:03;;;;;;;4.53;4.23;;;22.90;99.90;;;;;;4965214;28;20439;-54
2022/05/29 13:37:32;;;;;;;4.60;4.33;;;23.10;99.90;;;;;;4970205;28;20436;-57
2022/05/29 13:40:06;;;;;;;4.43;4.23;;;22.90;99.90;;;;;;4974050;28;20449;-54
2022/05/29 13:42:35;;;;;;;4.00;3.80;;;22.50;99.90;;;;;;4963838;28;20431;-56
2022/05/29 13:45:21;;;;;;;4.80;4.40;;;22.30;99.90;;;;;;4965380;28;20480;-56
2022/05/29 13:47:52;;;;;;;4.40;4.10;;;22.20;99.90;;;;;;4966554;28;20468;-55
2022/05/29 13:50:40;;;;;;;4.40;4.10;;;22.10;99.90;;;;;;4967234;28;20514;-57
2022/05/29 13:53:20;;;;;;;4.20;4.00;;;22.20;99.90;;;;;;4965273;28;20826;-56
2022/05/29 13:56:06;;;;;;;3.87;3.67;;;22.10;99.90;;;;;;4945757;28;20454;-55
2022/05/29 14:04:40;;;;;;;4.63;4.20;;;22.10;99.90;;;;;;4940888;28;20980;-53